sensor_id;sensor_type;location;lat;lon;timestamp;P1;durP1;ratioP1;P2;durP2;ratioP2
7359;SDS011;3720;48.274;7.796;2023-05-07T00:02:21;7.13;;;5.72;;
7359;SDS011;3720;48.274;7.796;2023-05-07T00:04:54;8.57;;;5.68;;
7359;SDS011;3720;48.274;7.796;2023-05-07T00:07:27;10.82;;;5.80;;
7359;SDS011;3720;48.274;7.796;2023-05-07T00:09:59;9.18;;;5.90;;
7359;SDS011;3720;48.274;7.796;2023-05-07T00:12:31;8.70;;;5.80;;
7359;SDS011;3720;48.274;7.796;2023-05-07T00:15:04;8.60;;;5.93;;
7359;SDS011;3720;48.274;7.796;2023-05-07T00:17:37;7.53;;;5.70;;
7359;SDS011;3720;48.274;7.796;2023-05-07T00:20:09;8.13;;;5.40;;
7359;SDS011;3720;48.274;7.796;2023-05-07T00:22:43;9.27;;;5.78;;
7359;SDS011;3720;48.274;7.796;2023-05-07T00:25:15;9.15;;;5.28;;
7359;SDS011;3720;48.274;7.796;2023-05-07T00:27:49;8.77;;;5.13;;
7359;SDS011;3720;48.274;7.796;2023-05-07T00:30:21;7.88;;;5.35;;
7359;SDS011;3720;48.274;7.796;2023-05-07T00:32:53;7.72;;;6.07;;
7359;SDS011;3720;48.274;7.796;2023-05-07T00:35:25;7.93;;;5.72;;
7359;SDS011;3720;48.274;7.796;2023-05-07T00:37:58;9.05;;;5.40;;
7359;SDS011;3720;48.274;7.796;2023-05-07T00:40:31;7.70;;;5.30;;
7359;SDS011;3720;48.274;7.796;2023-05-07T00:43:02;7.93;;;5.00;;
7359;SDS011;3720;48.274;7.796;2023-05-07T00:45:34;8.60;;;4.75;;
7359;SDS011;3720;48.274;7.796;2023-05-07T00:48:07;9.88;;;4.90;;
7359;SDS011;3720;48.274;7.796;2023-05-07T00:50:39;7.80;;;4.60;;
7359;SDS011;3720;48.274;7.796;2023-05-07T00:53:12;7.50;;;4.88;;
7359;SDS011;3720;48.274;7.796;2023-05-07T00:55:45;7.60;;;5.38;;
7359;SDS011;3720;48.274;7.796;2023-05-07T00:58:17;8.80;;;5.50;;
7359;SDS011;3720;48.274;7.796;2023-05-07T01:00:49;10.23;;;5.53;;
7359;SDS011;3720;48.274;7.796;2023-05-07T01:03:21;8.25;;;5.28;;
7359;SDS011;3720;48.274;7.796;2023-05-07T01:05:53;8.07;;;5.30;;
7359;SDS011;3720;48.274;7.796;2023-05-07T01:08:29;6.28;;;4.57;;
7359;SDS011;3720;48.274;7.796;2023-05-07T01:11:05;8.25;;;5.10;;
7359;SDS011;3720;48.274;7.796;2023-05-07T01:13:37;9.80;;;5.93;;
7359;SDS011;3720;48.274;7.796;2023-05-07T01:16:10;10.95;;;5.60;;
7359;SDS011;3720;48.274;7.796;2023-05-07T01:18:42;7.47;;;5.30;;
7359;SDS011;3720;48.274;7.796;2023-05-07T01:21:17;11.20;;;5.45;;
7359;SDS011;3720;48.274;7.796;2023-05-07T01:23:50;8.00;;;5.00;;
7359;SDS011;3720;48.274;7.796;2023-05-07T01:26:22;8.38;;;5.60;;
7359;SDS011;3720;48.274;7.796;2023-05-07T01:28:54;9.98;;;5.43;;
7359;SDS011;3720;48.274;7.796;2023-05-07T01:31:26;10.90;;;5.22;;
7359;SDS011;3720;48.274;7.796;2023-05-07T01:33:58;7.72;;;5.43;;
7359;SDS011;3720;48.274;7.796;2023-05-07T01:36:32;8.48;;;5.82;;
7359;SDS011;3720;48.274;7.796;2023-05-07T01:39:07;8.38;;;5.55;;
7359;SDS011;3720;48.274;7.796;2023-05-07T01:41:40;7.22;;;5.03;;
7359;SDS011;3720;48.274;7.796;2023-05-07T01:44:14;6.68;;;5.38;;
7359;SDS011;3720;48.274;7.796;2023-05-07T01:46:48;9.35;;;5.75;;
7359;SDS011;3720;48.274;7.796;2023-05-07T01:49:20;6.93;;;5.70;;
7359;SDS011;3720;48.274;7.796;2023-05-07T01:51:52;8.27;;;5.53;;
7359;SDS011;3720;48.274;7.796;2023-05-07T01:54:26;6.82;;;5.40;;
7359;SDS011;3720;48.274;7.796;2023-05-07T01:56:59;7.22;;;5.38;;
7359;SDS011;3720;48.274;7.796;2023-05-07T01:59:31;7.80;;;5.30;;
7359;SDS011;3720;48.274;7.796;2023-05-07T02:02:03;9.40;;;5.40;;
7359;SDS011;3720;48.274;7.796;2023-05-07T02:04:35;6.97;;;5.10;;
7359;SDS011;3720;48.274;7.796;2023-05-07T02:07:07;9.43;;;5.18;;
7359;SDS011;3720;48.274;7.796;2023-05-07T02:09:41;8.70;;;5.28;;
7359;SDS011;3720;48.274;7.796;2023-05-07T02:12:13;7.32;;;4.80;;
7359;SDS011;3720;48.274;7.796;2023-05-07T02:14:45;10.07;;;5.10;;
7359;SDS011;3720;48.274;7.796;2023-05-07T02:17:17;7.78;;;5.45;;
7359;SDS011;3720;48.274;7.796;2023-05-07T02:19:48;8.98;;;5.35;;
7359;SDS011;3720;48.274;7.796;2023-05-07T02:22:20;8.77;;;5.22;;
7359;SDS011;3720;48.274;7.796;2023-05-07T02:24:54;9.30;;;5.60;;
7359;SDS011;3720;48.274;7.796;2023-05-07T02:27:26;9.30;;;5.90;;
7359;SDS011;3720;48.274;7.796;2023-05-07T02:29:58;8.52;;;5.30;;
7359;SDS011;3720;48.274;7.796;2023-05-07T02:32:30;8.48;;;5.22;;
7359;SDS011;3720;48.274;7.796;2023-05-07T02:35:02;8.48;;;5.20;;
7359;SDS011;3720;48.274;7.796;2023-05-07T02:37:34;9.80;;;4.97;;
7359;SDS011;3720;48.274;7.796;2023-05-07T02:40:09;7.80;;;5.20;;
7359;SDS011;3720;48.274;7.796;2023-05-07T02:42:42;10.25;;;5.70;;
7359;SDS011;3720;48.274;7.796;2023-05-07T02:45:14;13.07;;;6.22;;
7359;SDS011;3720;48.274;7.796;2023-05-07T02:47:46;12.25;;;6.43;;
7359;SDS011;3720;48.274;7.796;2023-05-07T02:50:18;8.93;;;6.03;;
7359;SDS011;3720;48.274;7.796;2023-05-07T02:52:50;11.57;;;6.70;;
7359;SDS011;3720;48.274;7.796;2023-05-07T02:55:23;12.50;;;6.63;;
7359;SDS011;3720;48.274;7.796;2023-05-07T02:57:55;10.43;;;6.40;;
7359;SDS011;3720;48.274;7.796;2023-05-07T03:00:27;15.57;;;7.07;;
7359;SDS011;3720;48.274;7.796;2023-05-07T03:02:59;11.65;;;6.70;;
7359;SDS011;3720;48.274;7.796;2023-05-07T03:05:31;11.50;;;6.60;;
7359;SDS011;3720;48.274;7.796;2023-05-07T03:08:03;11.43;;;6.68;;
7359;SDS011;3720;48.274;7.796;2023-05-07T03:10:37;9.73;;;6.13;;
7359;SDS011;3720;48.274;7.796;2023-05-07T03:13:09;9.70;;;5.88;;
7359;SDS011;3720;48.274;7.796;2023-05-07T03:15:41;8.27;;;4.78;;
7359;SDS011;3720;48.274;7.796;2023-05-07T03:18:13;7.85;;;4.85;;
7359;SDS011;3720;48.274;7.796;2023-05-07T03:20:45;5.20;;;4.22;;
7359;SDS011;3720;48.274;7.796;2023-05-07T03:23:17;5.95;;;4.22;;
7359;SDS011;3720;48.274;7.796;2023-05-07T03:25:50;5.65;;;3.58;;
7359;SDS011;3720;48.274;7.796;2023-05-07T03:28:22;4.53;;;3.60;;
7359;SDS011;3720;48.274;7.796;2023-05-07T03:30:54;7.53;;;3.70;;
7359;SDS011;3720;48.274;7.796;2023-05-07T03:33:26;6.13;;;4.15;;
7359;SDS011;3720;48.274;7.796;2023-05-07T03:35:58;5.38;;;4.00;;
7359;SDS011;3720;48.274;7.796;2023-05-07T03:38:30;5.70;;;3.90;;
7359;SDS011;3720;48.274;7.796;2023-05-07T03:41:04;6.68;;;4.13;;
7359;SDS011;3720;48.274;7.796;2023-05-07T03:43:36;7.65;;;4.60;;
7359;SDS011;3720;48.274;7.796;2023-05-07T03:46:07;7.05;;;4.60;;
7359;SDS011;3720;48.274;7.796;2023-05-07T03:48:39;8.18;;;5.10;;
7359;SDS011;3720;48.274;7.796;2023-05-07T03:51:11;7.85;;;5.05;;
7359;SDS011;3720;48.274;7.796;2023-05-07T03:53:43;6.00;;;4.70;;
7359;SDS011;3720;48.274;7.796;2023-05-07T03:56:16;9.55;;;5.25;;
7359;SDS011;3720;48.274;7.796;2023-05-07T03:58:48;7.28;;;4.85;;
7359;SDS011;3720;48.274;7.796;2023-05-07T04:01:20;5.13;;;4.63;;
7359;SDS011;3720;48.274;7.796;2023-05-07T04:03:52;7.10;;;4.80;;
7359;SDS011;3720;48.274;7.796;2023-05-07T04:06:24;5.30;;;4.70;;
7359;SDS011;3720;48.274;7.796;2023-05-07T04:08:56;6.72;;;5.28;;
7359;SDS011;3720;48.274;7.796;2023-05-07T04:11:30;6.95;;;4.82;;
7359;SDS011;3720;48.274;7.796;2023-05-07T04:14:02;7.38;;;4.97;;
7359;SDS011;3720;48.274;7.796;2023-05-07T04:16:34;6.45;;;5.20;;
7359;SDS011;3720;48.274;7.796;2023-05-07T04:19:06;7.25;;;4.93;;
7359;SDS011;3720;48.274;7.796;2023-05-07T04:21:38;6.95;;;5.00;;
7359;SDS011;3720;48.274;7.796;2023-05-07T04:24:10;5.75;;;5.00;;
7359;SDS011;3720;48.274;7.796;2023-05-07T04:26:43;5.35;;;4.57;;
7359;SDS011;3720;48.274;7.796;2023-05-07T04:29:15;4.75;;;4.30;;
7359;SDS011;3720;48.274;7.796;2023-05-07T04:31:47;7.30;;;4.53;;
7359;SDS011;3720;48.274;7.796;2023-05-07T04:34:19;6.63;;;4.38;;
7359;SDS011;3720;48.274;7.796;2023-05-07T04:36:51;6.45;;;4.75;;
7359;SDS011;3720;48.274;7.796;2023-05-07T04:39:23;6.13;;;4.63;;
7359;SDS011;3720;48.274;7.796;2023-05-07T04:41:56;8.07;;;4.75;;
7359;SDS011;3720;48.274;7.796;2023-05-07T04:44:28;7.55;;;4.60;;
7359;SDS011;3720;48.274;7.796;2023-05-07T04:47:01;6.45;;;4.45;;
7359;SDS011;3720;48.274;7.796;2023-05-07T04:49:33;6.65;;;4.60;;
7359;SDS011;3720;48.274;7.796;2023-05-07T04:52:05;5.97;;;4.72;;
7359;SDS011;3720;48.274;7.796;2023-05-07T04:54:36;5.55;;;4.80;;
7359;SDS011;3720;48.274;7.796;2023-05-07T04:57:10;6.38;;;4.95;;
7359;SDS011;3720;48.274;7.796;2023-05-07T04:59:42;5.28;;;4.68;;
7359;SDS011;3720;48.274;7.796;2023-05-07T05:02:14;5.95;;;4.97;;
7359;SDS011;3720;48.274;7.796;2023-05-07T05:04:46;6.63;;;4.70;;
7359;SDS011;3720;48.274;7.796;2023-05-07T05:07:18;5.80;;;5.03;;
7359;SDS011;3720;48.274;7.796;2023-05-07T05:09:50;6.47;;;4.97;;
7359;SDS011;3720;48.274;7.796;2023-05-07T05:12:23;8.10;;;5.38;;
7359;SDS011;3720;48.274;7.796;2023-05-07T05:14:55;7.10;;;5.28;;
7359;SDS011;3720;48.274;7.796;2023-05-07T05:17:27;8.52;;;5.05;;
7359;SDS011;3720;48.274;7.796;2023-05-07T05:19:59;7.28;;;4.45;;
7359;SDS011;3720;48.274;7.796;2023-05-07T05:22:31;6.10;;;4.68;;
7359;SDS011;3720;48.274;7.796;2023-05-07T05:25:04;6.70;;;5.00;;
7359;SDS011;3720;48.274;7.796;2023-05-07T05:27:38;7.10;;;5.00;;
7359;SDS011;3720;48.274;7.796;2023-05-07T05:30:10;7.15;;;4.90;;
7359;SDS011;3720;48.274;7.796;2023-05-07T05:32:43;7.00;;;4.80;;
7359;SDS011;3720;48.274;7.796;2023-05-07T05:35:14;6.28;;;4.55;;
7359;SDS011;3720;48.274;7.796;2023-05-07T05:37:47;6.85;;;4.72;;
7359;SDS011;3720;48.274;7.796;2023-05-07T05:40:19;7.57;;;5.18;;
7359;SDS011;3720;48.274;7.796;2023-05-07T05:42:53;6.45;;;5.05;;
7359;SDS011;3720;48.274;7.796;2023-05-07T05:45:25;6.00;;;5.25;;
7359;SDS011;3720;48.274;7.796;2023-05-07T05:47:57;6.63;;;4.90;;
7359;SDS011;3720;48.274;7.796;2023-05-07T05:50:29;7.93;;;5.30;;
7359;SDS011;3720;48.274;7.796;2023-05-07T05:53:01;7.97;;;5.07;;
7359;SDS011;3720;48.274;7.796;2023-05-07T05:55:34;9.80;;;4.40;;
7359;SDS011;3720;48.274;7.796;2023-05-07T05:58:07;7.10;;;5.20;;
7359;SDS011;3720;48.274;7.796;2023-05-07T06:00:40;9.55;;;4.78;;
7359;SDS011;3720;48.274;7.796;2023-05-07T06:03:12;8.65;;;5.05;;
7359;SDS011;3720;48.274;7.796;2023-05-07T06:05:44;6.68;;;5.40;;
7359;SDS011;3720;48.274;7.796;2023-05-07T06:08:16;5.78;;;4.80;;
7359;SDS011;3720;48.274;7.796;2023-05-07T06:10:48;6.82;;;5.00;;
7359;SDS011;3720;48.274;7.796;2023-05-07T06:13:22;9.75;;;5.30;;
7359;SDS011;3720;48.274;7.796;2023-05-07T06:15:54;8.13;;;5.65;;
7359;SDS011;3720;48.274;7.796;2023-05-07T06:18:26;9.52;;;5.90;;
7359;SDS011;3720;48.274;7.796;2023-05-07T06:20:58;8.65;;;6.25;;
7359;SDS011;3720;48.274;7.796;2023-05-07T06:23:30;7.03;;;6.00;;
7359;SDS011;3720;48.274;7.796;2023-05-07T06:26:01;10.48;;;6.43;;
7359;SDS011;3720;48.274;7.796;2023-05-07T06:28:35;7.68;;;5.95;;
7359;SDS011;3720;48.274;7.796;2023-05-07T06:31:10;7.60;;;5.88;;
7359;SDS011;3720;48.274;7.796;2023-05-07T06:33:43;7.97;;;5.38;;
7359;SDS011;3720;48.274;7.796;2023-05-07T06:36:16;9.07;;;4.85;;
7359;SDS011;3720;48.274;7.796;2023-05-07T06:38:47;6.95;;;4.50;;
7359;SDS011;3720;48.274;7.796;2023-05-07T06:41:19;7.93;;;5.07;;
7359;SDS011;3720;48.274;7.796;2023-05-07T06:43:53;6.35;;;5.00;;
7359;SDS011;3720;48.274;7.796;2023-05-07T06:46:24;8.85;;;5.20;;
7359;SDS011;3720;48.274;7.796;2023-05-07T06:48:56;7.22;;;5.68;;
7359;SDS011;3720;48.274;7.796;2023-05-07T06:51:28;8.00;;;6.00;;
7359;SDS011;3720;48.274;7.796;2023-05-07T06:54:00;7.55;;;5.47;;
7359;SDS011;3720;48.274;7.796;2023-05-07T06:56:34;10.10;;;6.18;;
7359;SDS011;3720;48.274;7.796;2023-05-07T06:59:07;9.88;;;7.30;;
7359;SDS011;3720;48.274;7.796;2023-05-07T07:01:39;10.02;;;6.38;;
7359;SDS011;3720;48.274;7.796;2023-05-07T07:04:12;8.65;;;5.93;;
7359;SDS011;3720;48.274;7.796;2023-05-07T07:06:43;7.88;;;5.60;;
7359;SDS011;3720;48.274;7.796;2023-05-07T07:09:16;8.48;;;6.10;;
7359;SDS011;3720;48.274;7.796;2023-05-07T07:11:48;9.88;;;6.80;;
7359;SDS011;3720;48.274;7.796;2023-05-07T07:14:22;8.60;;;6.70;;
7359;SDS011;3720;48.274;7.796;2023-05-07T07:16:54;8.32;;;6.40;;
7359;SDS011;3720;48.274;7.796;2023-05-07T07:19:25;8.05;;;6.32;;
7359;SDS011;3720;48.274;7.796;2023-05-07T07:21:57;8.85;;;6.50;;
7359;SDS011;3720;48.274;7.796;2023-05-07T07:24:29;8.57;;;6.07;;
7359;SDS011;3720;48.274;7.796;2023-05-07T07:27:01;8.13;;;5.43;;
7359;SDS011;3720;48.274;7.796;2023-05-07T07:29:35;8.02;;;5.20;;
7359;SDS011;3720;48.274;7.796;2023-05-07T07:32:07;12.80;;;5.90;;
7359;SDS011;3720;48.274;7.796;2023-05-07T07:34:39;7.88;;;4.95;;
7359;SDS011;3720;48.274;7.796;2023-05-07T07:37:11;6.97;;;5.00;;
7359;SDS011;3720;48.274;7.796;2023-05-07T07:39:43;9.32;;;5.07;;
7359;SDS011;3720;48.274;7.796;2023-05-07T07:42:15;8.75;;;5.28;;
7359;SDS011;3720;48.274;7.796;2023-05-07T07:44:49;6.55;;;4.75;;
7359;SDS011;3720;48.274;7.796;2023-05-07T07:47:21;5.88;;;4.57;;
7359;SDS011;3720;48.274;7.796;2023-05-07T07:49:53;7.00;;;5.03;;
7359;SDS011;3720;48.274;7.796;2023-05-07T07:52:25;9.02;;;4.95;;
7359;SDS011;3720;48.274;7.796;2023-05-07T07:54:57;8.35;;;4.75;;
7359;SDS011;3720;48.274;7.796;2023-05-07T07:57:29;6.80;;;4.38;;
7359;SDS011;3720;48.274;7.796;2023-05-07T08:00:03;6.78;;;4.78;;
7359;SDS011;3720;48.274;7.796;2023-05-07T08:02:37;7.37;;;4.57;;
7359;SDS011;3720;48.274;7.796;2023-05-07T08:05:09;8.88;;;5.22;;
7359;SDS011;3720;48.274;7.796;2023-05-07T08:07:42;6.88;;;4.90;;
7359;SDS011;3720;48.274;7.796;2023-05-07T08:10:13;7.30;;;5.57;;
7359;SDS011;3720;48.274;7.796;2023-05-07T08:12:51;7.05;;;5.43;;
7359;SDS011;3720;48.274;7.796;2023-05-07T08:15:24;8.27;;;5.78;;
7359;SDS011;3720;48.274;7.796;2023-05-07T08:17:56;6.40;;;4.90;;
7359;SDS011;3720;48.274;7.796;2023-05-07T08:20:30;7.53;;;4.35;;
7359;SDS011;3720;48.274;7.796;2023-05-07T08:23:02;7.80;;;4.60;;
7359;SDS011;3720;48.274;7.796;2023-05-07T08:25:34;6.20;;;4.40;;
7359;SDS011;3720;48.274;7.796;2023-05-07T08:28:06;8.05;;;4.53;;
7359;SDS011;3720;48.274;7.796;2023-05-07T08:30:39;6.53;;;4.40;;
7359;SDS011;3720;48.274;7.796;2023-05-07T08:33:11;7.90;;;4.80;;
7359;SDS011;3720;48.274;7.796;2023-05-07T08:35:43;7.05;;;4.82;;
7359;SDS011;3720;48.274;7.796;2023-05-07T08:38:16;7.93;;;4.57;;
7359;SDS011;3720;48.274;7.796;2023-05-07T08:40:47;6.18;;;3.42;;
7359;SDS011;3720;48.274;7.796;2023-05-07T08:43:19;6.70;;;5.32;;
7359;SDS011;3720;48.274;7.796;2023-05-07T08:45:54;7.05;;;4.03;;
7359;SDS011;3720;48.274;7.796;2023-05-07T08:48:29;7.25;;;4.88;;
7359;SDS011;3720;48.274;7.796;2023-05-07T08:51:02;8.63;;;5.05;;
7359;SDS011;3720;48.274;7.796;2023-05-07T08:53:34;6.35;;;4.57;;
7359;SDS011;3720;48.274;7.796;2023-05-07T08:56:08;5.95;;;4.50;;
7359;SDS011;3720;48.274;7.796;2023-05-07T08:58:40;9.10;;;4.50;;
7359;SDS011;3720;48.274;7.796;2023-05-07T09:01:15;6.78;;;4.68;;
7359;SDS011;3720;48.274;7.796;2023-05-07T09:03:49;8.65;;;4.75;;
7359;SDS011;3720;48.274;7.796;2023-05-07T09:06:21;8.98;;;4.30;;
7359;SDS011;3720;48.274;7.796;2023-05-07T09:08:54;6.80;;;4.70;;
7359;SDS011;3720;48.274;7.796;2023-05-07T09:11:27;5.25;;;4.50;;
7359;SDS011;3720;48.274;7.796;2023-05-07T09:13:59;6.18;;;4.45;;
7359;SDS011;3720;48.274;7.796;2023-05-07T09:16:34;5.40;;;3.30;;
7359;SDS011;3720;48.274;7.796;2023-05-07T09:19:06;7.20;;;4.55;;
7359;SDS011;3720;48.274;7.796;2023-05-07T09:21:37;5.13;;;3.50;;
7359;SDS011;3720;48.274;7.796;2023-05-07T09:24:09;6.38;;;3.92;;
7359;SDS011;3720;48.274;7.796;2023-05-07T09:26:41;5.68;;;3.97;;
7359;SDS011;3720;48.274;7.796;2023-05-07T09:29:15;4.47;;;2.92;;
7359;SDS011;3720;48.274;7.796;2023-05-07T09:31:49;3.97;;;3.50;;
7359;SDS011;3720;48.274;7.796;2023-05-07T09:34:21;5.10;;;3.80;;
7359;SDS011;3720;48.274;7.796;2023-05-07T09:36:53;6.80;;;4.00;;
7359;SDS011;3720;48.274;7.796;2023-05-07T09:39:26;7.28;;;3.80;;
7359;SDS011;3720;48.274;7.796;2023-05-07T09:42:10;7.47;;;4.70;;
7359;SDS011;3720;48.274;7.796;2023-05-07T09:44:43;9.00;;;3.97;;
7359;SDS011;3720;48.274;7.796;2023-05-07T09:47:17;5.93;;;3.60;;
7359;SDS011;3720;48.274;7.796;2023-05-07T09:49:54;6.32;;;3.45;;
7359;SDS011;3720;48.274;7.796;2023-05-07T09:52:29;5.93;;;2.95;;
7359;SDS011;3720;48.274;7.796;2023-05-07T09:55:03;3.78;;;2.95;;
7359;SDS011;3720;48.274;7.796;2023-05-07T09:57:36;3.58;;;2.70;;
7359;SDS011;3720;48.274;7.796;2023-05-07T10:00:10;4.80;;;3.42;;
7359;SDS011;3720;48.274;7.796;2023-05-07T10:02:44;5.05;;;3.67;;
7359;SDS011;3720;48.274;7.796;2023-05-07T10:05:19;6.75;;;4.40;;
7359;SDS011;3720;48.274;7.796;2023-05-07T10:07:52;7.20;;;5.00;;
7359;SDS011;3720;48.274;7.796;2023-05-07T10:10:25;6.20;;;4.68;;
7359;SDS011;3720;48.274;7.796;2023-05-07T10:12:58;8.27;;;4.72;;
7359;SDS011;3720;48.274;7.796;2023-05-07T10:15:32;6.43;;;4.70;;
7359;SDS011;3720;48.274;7.796;2023-05-07T10:18:06;8.10;;;5.32;;
7359;SDS011;3720;48.274;7.796;2023-05-07T10:20:38;8.52;;;4.95;;
7359;SDS011;3720;48.274;7.796;2023-05-07T10:23:13;7.60;;;5.38;;
7359;SDS011;3720;48.274;7.796;2023-05-07T10:25:49;7.88;;;5.50;;
7359;SDS011;3720;48.274;7.796;2023-05-07T10:28:21;8.57;;;5.97;;
7359;SDS011;3720;48.274;7.796;2023-05-07T10:30:58;8.23;;;6.20;;
7359;SDS011;3720;48.274;7.796;2023-05-07T10:33:40;7.93;;;5.75;;
7359;SDS011;3720;48.274;7.796;2023-05-07T10:36:15;9.50;;;6.72;;
7359;SDS011;3720;48.274;7.796;2023-05-07T10:38:48;8.85;;;6.43;;
7359;SDS011;3720;48.274;7.796;2023-05-07T10:41:20;11.02;;;6.50;;
7359;SDS011;3720;48.274;7.796;2023-05-07T10:43:52;10.95;;;6.78;;
7359;SDS011;3720;48.274;7.796;2023-05-07T10:46:24;7.35;;;6.20;;
7359;SDS011;3720;48.274;7.796;2023-05-07T10:49:10;8.85;;;6.22;;
7359;SDS011;3720;48.274;7.796;2023-05-07T10:51:46;9.13;;;6.90;;
7359;SDS011;3720;48.274;7.796;2023-05-07T10:54:45;11.18;;;7.60;;
7359;SDS011;3720;48.274;7.796;2023-05-07T10:57:33;9.63;;;6.85;;
7359;SDS011;3720;48.274;7.796;2023-05-07T11:03:12;5.95;;;5.35;;
7359;SDS011;3720;48.274;7.796;2023-05-07T11:05:46;9.27;;;6.35;;
7359;SDS011;3720;48.274;7.796;2023-05-07T11:08:19;7.40;;;5.88;;
7359;SDS011;3720;48.274;7.796;2023-05-07T11:10:51;7.95;;;5.28;;
7359;SDS011;3720;48.274;7.796;2023-05-07T11:13:43;7.57;;;5.10;;
7359;SDS011;3720;48.274;7.796;2023-05-07T11:16:17;6.43;;;4.88;;
7359;SDS011;3720;48.274;7.796;2023-05-07T11:18:51;7.65;;;4.50;;
7359;SDS011;3720;48.274;7.796;2023-05-07T11:21:35;8.18;;;4.90;;
7359;SDS011;3720;48.274;7.796;2023-05-07T11:24:08;7.50;;;4.45;;
7359;SDS011;3720;48.274;7.796;2023-05-07T11:26:42;12.75;;;4.57;;
7359;SDS011;3720;48.274;7.796;2023-05-07T11:29:18;6.03;;;4.50;;
7359;SDS011;3720;48.274;7.796;2023-05-07T11:31:51;5.93;;;3.90;;
7359;SDS011;3720;48.274;7.796;2023-05-07T11:34:27;5.05;;;3.80;;
7359;SDS011;3720;48.274;7.796;2023-05-07T11:37:01;6.30;;;3.70;;
7359;SDS011;3720;48.274;7.796;2023-05-07T11:39:34;6.85;;;3.72;;
7359;SDS011;3720;48.274;7.796;2023-05-07T11:42:06;6.18;;;4.32;;
7359;SDS011;3720;48.274;7.796;2023-05-07T11:44:42;6.90;;;3.78;;
7359;SDS011;3720;48.274;7.796;2023-05-07T11:47:19;5.43;;;4.13;;
7359;SDS011;3720;48.274;7.796;2023-05-07T11:49:52;5.03;;;4.13;;
7359;SDS011;3720;48.274;7.796;2023-05-07T11:52:26;5.32;;;4.07;;
7359;SDS011;3720;48.274;7.796;2023-05-07T11:54:59;5.13;;;4.15;;
7359;SDS011;3720;48.274;7.796;2023-05-07T11:57:33;5.65;;;4.10;;
7359;SDS011;3720;48.274;7.796;2023-05-07T12:00:06;5.47;;;4.05;;
7359;SDS011;3720;48.274;7.796;2023-05-07T12:02:38;9.20;;;4.05;;
7359;SDS011;3720;48.274;7.796;2023-05-07T12:05:11;6.15;;;4.35;;
7359;SDS011;3720;48.274;7.796;2023-05-07T12:07:45;7.72;;;5.10;;
7359;SDS011;3720;48.274;7.796;2023-05-07T12:10:17;8.25;;;4.45;;
7359;SDS011;3720;48.274;7.796;2023-05-07T12:12:49;7.03;;;4.57;;
7359;SDS011;3720;48.274;7.796;2023-05-07T12:15:22;6.20;;;4.80;;
7359;SDS011;3720;48.274;7.796;2023-05-07T12:17:54;6.03;;;4.43;;
7359;SDS011;3720;48.274;7.796;2023-05-07T12:20:26;5.82;;;4.45;;
7359;SDS011;3720;48.274;7.796;2023-05-07T12:22:59;7.22;;;4.72;;
7359;SDS011;3720;48.274;7.796;2023-05-07T12:25:34;9.15;;;4.60;;
7359;SDS011;3720;48.274;7.796;2023-05-07T12:28:07;7.15;;;4.68;;
7359;SDS011;3720;48.274;7.796;2023-05-07T12:30:39;7.80;;;4.35;;
7359;SDS011;3720;48.274;7.796;2023-05-07T12:33:11;6.82;;;4.95;;
7359;SDS011;3720;48.274;7.796;2023-05-07T12:35:47;8.43;;;5.03;;
7359;SDS011;3720;48.274;7.796;2023-05-07T12:38:21;9.18;;;5.60;;
7359;SDS011;3720;48.274;7.796;2023-05-07T12:40:54;7.47;;;5.03;;
7359;SDS011;3720;48.274;7.796;2023-05-07T12:43:27;6.45;;;5.15;;
7359;SDS011;3720;48.274;7.796;2023-05-07T12:46:00;8.00;;;5.45;;
7359;SDS011;3720;48.274;7.796;2023-05-07T12:48:35;7.32;;;5.70;;
7359;SDS011;3720;48.274;7.796;2023-05-07T12:51:07;6.38;;;5.20;;
7359;SDS011;3720;48.274;7.796;2023-05-07T12:53:45;8.77;;;5.95;;
7359;SDS011;3720;48.274;7.796;2023-05-07T12:56:17;7.50;;;5.60;;
7359;SDS011;3720;48.274;7.796;2023-05-07T12:58:48;9.10;;;5.32;;
7359;SDS011;3720;48.274;7.796;2023-05-07T13:01:21;7.68;;;5.72;;
7359;SDS011;3720;48.274;7.796;2023-05-07T13:03:54;6.90;;;4.88;;
7359;SDS011;3720;48.274;7.796;2023-05-07T13:06:25;6.75;;;4.70;;
7359;SDS011;3720;48.274;7.796;2023-05-07T13:08:59;5.13;;;4.60;;
7359;SDS011;3720;48.274;7.796;2023-05-07T13:11:31;6.97;;;4.18;;
7359;SDS011;3720;48.274;7.796;2023-05-07T13:14:03;6.15;;;4.22;;
7359;SDS011;3720;48.274;7.796;2023-05-07T13:16:34;5.88;;;3.63;;
7359;SDS011;3720;48.274;7.796;2023-05-07T13:19:06;5.18;;;4.22;;
7359;SDS011;3720;48.274;7.796;2023-05-07T13:21:39;1.98;;;1.50;;
7359;SDS011;3720;48.274;7.796;2023-05-07T13:24:12;3.95;;;1.40;;
7359;SDS011;3720;48.274;7.796;2023-05-07T13:26:44;2.40;;;1.20;;
7359;SDS011;3720;48.274;7.796;2023-05-07T13:29:16;1.90;;;1.20;;
7359;SDS011;3720;48.274;7.796;2023-05-07T13:31:48;2.42;;;1.30;;
7359;SDS011;3720;48.274;7.796;2023-05-07T13:34:19;2.10;;;1.30;;
7359;SDS011;3720;48.274;7.796;2023-05-07T13:36:52;2.83;;;1.38;;
7359;SDS011;3720;48.274;7.796;2023-05-07T13:39:25;3.17;;;1.40;;
7359;SDS011;3720;48.274;7.796;2023-05-07T13:41:57;1.88;;;1.48;;
7359;SDS011;3720;48.274;7.796;2023-05-07T13:44:29;1.73;;;1.48;;
7359;SDS011;3720;48.274;7.796;2023-05-07T13:47:00;3.20;;;1.58;;
7359;SDS011;3720;48.274;7.796;2023-05-07T13:49:33;1.75;;;1.50;;
7359;SDS011;3720;48.274;7.796;2023-05-07T13:52:04;2.13;;;1.35;;
7359;SDS011;3720;48.274;7.796;2023-05-07T13:54:38;1.70;;;1.30;;
7359;SDS011;3720;48.274;7.796;2023-05-07T13:57:10;2.15;;;1.30;;
7359;SDS011;3720;48.274;7.796;2023-05-07T13:59:42;1.42;;;1.33;;
7359;SDS011;3720;48.274;7.796;2023-05-07T14:02:14;3.05;;;1.40;;
7359;SDS011;3720;48.274;7.796;2023-05-07T14:04:46;2.35;;;1.48;;
7359;SDS011;3720;48.274;7.796;2023-05-07T14:07:18;1.95;;;1.60;;
7359;SDS011;3720;48.274;7.796;2023-05-07T14:09:51;2.35;;;1.65;;
7359;SDS011;3720;48.274;7.796;2023-05-07T14:12:23;2.55;;;1.60;;
7359;SDS011;3720;48.274;7.796;2023-05-07T14:14:55;2.28;;;1.50;;
7359;SDS011;3720;48.274;7.796;2023-05-07T14:17:27;2.53;;;1.80;;
7359;SDS011;3720;48.274;7.796;2023-05-07T14:20:00;1.65;;;1.40;;
7359;SDS011;3720;48.274;7.796;2023-05-07T14:22:32;2.22;;;1.50;;
7359;SDS011;3720;48.274;7.796;2023-05-07T14:25:07;2.15;;;1.50;;
7359;SDS011;3720;48.274;7.796;2023-05-07T14:27:40;2.20;;;1.63;;
7359;SDS011;3720;48.274;7.796;2023-05-07T14:30:13;3.15;;;1.50;;
7359;SDS011;3720;48.274;7.796;2023-05-07T14:32:45;2.00;;;1.80;;
7359;SDS011;3720;48.274;7.796;2023-05-07T14:35:17;5.47;;;1.65;;
7359;SDS011;3720;48.274;7.796;2023-05-07T14:37:49;2.25;;;1.65;;
7359;SDS011;3720;48.274;7.796;2023-05-07T14:40:22;3.17;;;2.03;;
7359;SDS011;3720;48.274;7.796;2023-05-07T14:42:54;2.35;;;2.00;;
7359;SDS011;3720;48.274;7.796;2023-05-07T14:45:27;3.75;;;2.25;;
7359;SDS011;3720;48.274;7.796;2023-05-07T14:47:59;2.47;;;2.10;;
7359;SDS011;3720;48.274;7.796;2023-05-07T14:50:31;3.05;;;1.83;;
7359;SDS011;3720;48.274;7.796;2023-05-07T14:53:03;3.33;;;2.00;;
7359;SDS011;3720;48.274;7.796;2023-05-07T14:55:37;3.30;;;1.83;;
7359;SDS011;3720;48.274;7.796;2023-05-07T14:58:09;1.58;;;1.48;;
7359;SDS011;3720;48.274;7.796;2023-05-07T15:00:42;1.50;;;1.40;;
7359;SDS011;3720;48.274;7.796;2023-05-07T15:03:14;2.55;;;1.70;;
7359;SDS011;3720;48.274;7.796;2023-05-07T15:05:46;2.80;;;1.45;;
7359;SDS011;3720;48.274;7.796;2023-05-07T15:08:20;1.77;;;1.50;;
7359;SDS011;3720;48.274;7.796;2023-05-07T15:10:54;2.35;;;1.30;;
7359;SDS011;3720;48.274;7.796;2023-05-07T15:13:26;1.75;;;1.40;;
7359;SDS011;3720;48.274;7.796;2023-05-07T15:15:58;2.10;;;1.50;;
7359;SDS011;3720;48.274;7.796;2023-05-07T15:18:30;2.35;;;1.60;;
7359;SDS011;3720;48.274;7.796;2023-05-07T15:21:02;1.80;;;1.40;;
7359;SDS011;3720;48.274;7.796;2023-05-07T15:23:34;2.30;;;1.20;;
7359;SDS011;3720;48.274;7.796;2023-05-07T15:26:08;1.60;;;1.50;;
7359;SDS011;3720;48.274;7.796;2023-05-07T15:28:40;2.90;;;1.67;;
7359;SDS011;3720;48.274;7.796;2023-05-07T15:31:12;2.10;;;1.70;;
7359;SDS011;3720;48.274;7.796;2023-05-07T15:33:44;2.80;;;1.60;;
7359;SDS011;3720;48.274;7.796;2023-05-07T15:36:17;2.05;;;1.10;;
7359;SDS011;3720;48.274;7.796;2023-05-07T15:38:49;1.98;;;1.40;;
7359;SDS011;3720;48.274;7.796;2023-05-07T15:41:22;1.83;;;1.17;;
7359;SDS011;3720;48.274;7.796;2023-05-07T15:43:55;1.40;;;1.00;;
7359;SDS011;3720;48.274;7.796;2023-05-07T15:46:27;2.63;;;1.05;;
7359;SDS011;3720;48.274;7.796;2023-05-07T15:48:59;0.77;;;0.77;;
7359;SDS011;3720;48.274;7.796;2023-05-07T15:51:34;0.80;;;0.80;;
7359;SDS011;3720;48.274;7.796;2023-05-07T15:54:06;1.05;;;0.82;;